sensor_id;sensor_type;location;lat;lon;timestamp;temperature;humidity
24678;DHT22;12800;53.094;8.778;2023-10-19T00:02:06;10.70;75.80
24678;DHT22;12800;53.094;8.778;2023-10-19T00:04:40;10.70;76.40
24678;DHT22;12800;53.094;8.778;2023-10-19T00:07:06;10.70;76.90
24678;DHT22;12800;53.094;8.778;2023-10-19T00:09:34;10.60;77.00
24678;DHT22;12800;53.094;8.778;2023-10-19T00:12:06;10.60;77.50
24678;DHT22;12800;53.094;8.778;2023-10-19T00:14:34;10.50;77.80
24678;DHT22;12800;53.094;8.778;2023-10-19T00:17:00;10.50;78.30
24678;DHT22;12800;53.094;8.778;2023-10-19T00:19:32;10.50;78.90
24678;DHT22;12800;53.094;8.778;2023-10-19T00:22:03;10.50;79.40
24678;DHT22;12800;53.094;8.778;2023-10-19T00:24:36;10.40;79.40
24678;DHT22;12800;53.094;8.778;2023-10-19T00:27:02;10.30;80.00
24678;DHT22;12800;53.094;8.778;2023-10-19T00:29:40;10.30;80.40
24678;DHT22;12800;53.094;8.778;2023-10-19T00:32:06;10.30;80.80
24678;DHT22;12800;53.094;8.778;2023-10-19T00:34:38;10.20;81.20
24678;DHT22;12800;53.094;8.778;2023-10-19T00:37:04;10.20;81.40
24678;DHT22;12800;53.094;8.778;2023-10-19T00:39:34;10.10;81.70
24678;DHT22;12800;53.094;8.778;2023-10-19T00:42:13;10.10;82.00
24678;DHT22;12800;53.094;8.778;2023-10-19T00:44:41;10.00;82.40
24678;DHT22;12800;53.094;8.778;2023-10-19T00:47:14;10.00;82.60
24678;DHT22;12800;53.094;8.778;2023-10-19T00:49:48;10.00;82.90
24678;DHT22;12800;53.094;8.778;2023-10-19T00:52:14;9.90;82.90
24678;DHT22;12800;53.094;8.778;2023-10-19T00:54:46;9.80;83.40
24678;DHT22;12800;53.094;8.778;2023-10-19T00:57:16;9.90;83.90
24678;DHT22;12800;53.094;8.778;2023-10-19T00:59:46;9.80;83.80
24678;DHT22;12800;53.094;8.778;2023-10-19T01:02:19;9.80;83.90
24678;DHT22;12800;53.094;8.778;2023-10-19T01:04:51;9.70;84.30
24678;DHT22;12800;53.094;8.778;2023-10-19T01:07:38;9.80;84.50
24678;DHT22;12800;53.094;8.778;2023-10-19T01:10:06;9.70;84.50
24678;DHT22;12800;53.094;8.778;2023-10-19T01:12:49;9.70;84.70
24678;DHT22;12800;53.094;8.778;2023-10-19T01:15:19;9.70;84.90
24678;DHT22;12800;53.094;8.778;2023-10-19T01:18:11;9.70;85.10
24678;DHT22;12800;53.094;8.778;2023-10-19T01:20:39;9.70;85.30
24678;DHT22;12800;53.094;8.778;2023-10-19T01:23:18;9.70;85.50
24678;DHT22;12800;53.094;8.778;2023-10-19T01:25:48;9.70;85.50
24678;DHT22;12800;53.094;8.778;2023-10-19T01:28:28;9.70;85.40
24678;DHT22;12800;53.094;8.778;2023-10-19T01:31:18;9.60;85.50
24678;DHT22;12800;53.094;8.778;2023-10-19T01:33:53;9.60;86.60
24678;DHT22;12800;53.094;8.778;2023-10-19T01:36:24;9.60;86.00
24678;DHT22;12800;53.094;8.778;2023-10-19T01:38:54;9.70;86.20
24678;DHT22;12800;53.094;8.778;2023-10-19T01:41:22;9.60;86.10
24678;DHT22;12800;53.094;8.778;2023-10-19T01:43:50;9.70;86.20
24678;DHT22;12800;53.094;8.778;2023-10-19T01:46:17;9.60;86.10
24678;DHT22;12800;53.094;8.778;2023-10-19T01:48:52;9.60;86.10
24678;DHT22;12800;53.094;8.778;2023-10-19T01:51:22;9.50;86.10
24678;DHT22;12800;53.094;8.778;2023-10-19T01:53:55;9.50;86.40
24678;DHT22;12800;53.094;8.778;2023-10-19T01:56:21;9.50;86.50
24678;DHT22;12800;53.094;8.778;2023-10-19T01:58:47;9.50;86.50
24678;DHT22;12800;53.094;8.778;2023-10-19T02:01:15;9.40;86.70
24678;DHT22;12800;53.094;8.778;2023-10-19T02:03:41;9.40;86.70
24678;DHT22;12800;53.094;8.778;2023-10-19T02:06:12;9.40;86.90
24678;DHT22;12800;53.094;8.778;2023-10-19T02:08:55;9.30;87.00
24678;DHT22;12800;53.094;8.778;2023-10-19T02:11:27;9.30;87.00
24678;DHT22;12800;53.094;8.778;2023-10-19T02:13:57;9.30;87.20
24678;DHT22;12800;53.094;8.778;2023-10-19T02:16:29;9.30;87.20
24678;DHT22;12800;53.094;8.778;2023-10-19T02:18:55;9.30;87.50
24678;DHT22;12800;53.094;8.778;2023-10-19T02:21:21;9.30;87.60
24678;DHT22;12800;53.094;8.778;2023-10-19T02:23:57;9.30;88.40
24678;DHT22;12800;53.094;8.778;2023-10-19T02:26:23;9.30;87.50
24678;DHT22;12800;53.094;8.778;2023-10-19T02:28:52;9.30;87.70
24678;DHT22;12800;53.094;8.778;2023-10-19T02:31:19;9.30;87.70
24678;DHT22;12800;53.094;8.778;2023-10-19T02:33:47;9.20;87.80
24678;DHT22;12800;53.094;8.778;2023-10-19T02:36:18;9.20;87.80
24678;DHT22;12800;53.094;8.778;2023-10-19T02:38:45;9.20;88.10
24678;DHT22;12800;53.094;8.778;2023-10-19T02:41:17;9.20;88.00
24678;DHT22;12800;53.094;8.778;2023-10-19T02:43:45;9.20;88.10
24678;DHT22;12800;53.094;8.778;2023-10-19T02:46:22;9.20;88.30
24678;DHT22;12800;53.094;8.778;2023-10-19T02:48:49;9.20;88.40
24678;DHT22;12800;53.094;8.778;2023-10-19T02:51:15;9.20;88.60
24678;DHT22;12800;53.094;8.778;2023-10-19T02:53:41;9.20;88.50
24678;DHT22;12800;53.094;8.778;2023-10-19T02:56:14;9.20;88.60
24678;DHT22;12800;53.094;8.778;2023-10-19T02:58:43;9.20;88.60
24678;DHT22;12800;53.094;8.778;2023-10-19T03:01:21;9.20;88.70
24678;DHT22;12800;53.094;8.778;2023-10-19T03:03:54;9.20;88.80
24678;DHT22;12800;53.094;8.778;2023-10-19T03:06:23;9.20;89.00
24678;DHT22;12800;53.094;8.778;2023-10-19T03:08:50;9.30;89.00
24678;DHT22;12800;53.094;8.778;2023-10-19T03:11:23;9.30;88.90
24678;DHT22;12800;53.094;8.778;2023-10-19T03:13:50;9.30;89.00
24678;DHT22;12800;53.094;8.778;2023-10-19T03:16:17;9.30;89.10
24678;DHT22;12800;53.094;8.778;2023-10-19T03:18:43;9.30;89.10
24678;DHT22;12800;53.094;8.778;2023-10-19T03:21:08;9.30;89.00
24678;DHT22;12800;53.094;8.778;2023-10-19T03:23:36;9.30;89.10
24678;DHT22;12800;53.094;8.778;2023-10-19T03:26:03;9.30;89.00
24678;DHT22;12800;53.094;8.778;2023-10-19T03:28:44;9.20;89.10
24678;DHT22;12800;53.094;8.778;2023-10-19T03:31:10;9.20;89.30
24678;DHT22;12800;53.094;8.778;2023-10-19T03:33:46;9.20;89.30
24678;DHT22;12800;53.094;8.778;2023-10-19T03:36:31;9.20;89.40
24678;DHT22;12800;53.094;8.778;2023-10-19T03:38:58;9.20;89.50
24678;DHT22;12800;53.094;8.778;2023-10-19T03:41:32;9.20;89.50
24678;DHT22;12800;53.094;8.778;2023-10-19T03:44:01;9.20;89.50
24678;DHT22;12800;53.094;8.778;2023-10-19T03:46:26;9.20;89.60
24678;DHT22;12800;53.094;8.778;2023-10-19T03:49:00;9.20;89.70
24678;DHT22;12800;53.094;8.778;2023-10-19T03:51:39;9.30;89.90
24678;DHT22;12800;53.094;8.778;2023-10-19T03:54:06;9.30;89.60
24678;DHT22;12800;53.094;8.778;2023-10-19T03:56:52;9.30;89.50
24678;DHT22;12800;53.094;8.778;2023-10-19T03:59:18;9.20;89.50
24678;DHT22;12800;53.094;8.778;2023-10-19T04:01:43;9.20;89.60
24678;DHT22;12800;53.094;8.778;2023-10-19T04:04:10;9.20;89.60
24678;DHT22;12800;53.094;8.778;2023-10-19T04:06:36;9.20;89.70
24678;DHT22;12800;53.094;8.778;2023-10-19T04:09:05;9.20;89.60
24678;DHT22;12800;53.094;8.778;2023-10-19T04:11:34;9.20;89.80
24678;DHT22;12800;53.094;8.778;2023-10-19T04:14:16;9.20;89.90
24678;DHT22;12800;53.094;8.778;2023-10-19T04:16:43;9.10;89.70
24678;DHT22;12800;53.094;8.778;2023-10-19T04:19:12;9.20;89.90
24678;DHT22;12800;53.094;8.778;2023-10-19T04:21:38;9.20;90.00
24678;DHT22;12800;53.094;8.778;2023-10-19T04:24:08;9.10;90.00
24678;DHT22;12800;53.094;8.778;2023-10-19T04:26:34;9.20;90.00
24678;DHT22;12800;53.094;8.778;2023-10-19T04:29:06;9.10;89.90
24678;DHT22;12800;53.094;8.778;2023-10-19T04:31:37;9.10;89.90
24678;DHT22;12800;53.094;8.778;2023-10-19T04:34:03;9.10;90.00
24678;DHT22;12800;53.094;8.778;2023-10-19T04:36:33;9.00;90.00
24678;DHT22;12800;53.094;8.778;2023-10-19T04:38:59;9.00;90.10
24678;DHT22;12800;53.094;8.778;2023-10-19T04:41:25;9.00;90.20
24678;DHT22;12800;53.094;8.778;2023-10-19T04:43:53;9.10;90.40
24678;DHT22;12800;53.094;8.778;2023-10-19T04:46:20;9.10;90.20
24678;DHT22;12800;53.094;8.778;2023-10-19T04:48:45;9.10;90.20
24678;DHT22;12800;53.094;8.778;2023-10-19T04:51:11;9.10;90.20
24678;DHT22;12800;53.094;8.778;2023-10-19T04:53:38;9.10;90.20
24678;DHT22;12800;53.094;8.778;2023-10-19T04:56:07;9.10;90.20
24678;DHT22;12800;53.094;8.778;2023-10-19T04:58:34;9.00;90.20
24678;DHT22;12800;53.094;8.778;2023-10-19T05:01:00;9.00;90.30
24678;DHT22;12800;53.094;8.778;2023-10-19T05:03:29;9.00;90.50
24678;DHT22;12800;53.094;8.778;2023-10-19T05:05:55;9.00;90.30
24678;DHT22;12800;53.094;8.778;2023-10-19T05:08:22;9.00;90.30
24678;DHT22;12800;53.094;8.778;2023-10-19T05:10:53;9.00;90.40
24678;DHT22;12800;53.094;8.778;2023-10-19T05:13:23;9.00;90.40
24678;DHT22;12800;53.094;8.778;2023-10-19T05:15:49;9.10;90.50
24678;DHT22;12800;53.094;8.778;2023-10-19T05:18:14;9.10;90.50
24678;DHT22;12800;53.094;8.778;2023-10-19T05:20:40;9.10;90.60
24678;DHT22;12800;53.094;8.778;2023-10-19T05:23:07;9.10;90.50
24678;DHT22;12800;53.094;8.778;2023-10-19T05:25:34;9.10;90.60
24678;DHT22;12800;53.094;8.778;2023-10-19T05:28:02;9.10;90.60
24678;DHT22;12800;53.094;8.778;2023-10-19T05:30:28;9.10;90.50
24678;DHT22;12800;53.094;8.778;2023-10-19T05:32:55;9.00;90.40
24678;DHT22;12800;53.094;8.778;2023-10-19T05:35:22;9.00;90.60
24678;DHT22;12800;53.094;8.778;2023-10-19T05:37:49;9.10;90.70
24678;DHT22;12800;53.094;8.778;2023-10-19T05:40:15;9.10;90.70
24678;DHT22;12800;53.094;8.778;2023-10-19T05:42:41;9.10;90.60
24678;DHT22;12800;53.094;8.778;2023-10-19T05:45:07;9.10;90.60
24678;DHT22;12800;53.094;8.778;2023-10-19T05:47:33;9.10;90.70
24678;DHT22;12800;53.094;8.778;2023-10-19T05:49:59;9.10;90.70
24678;DHT22;12800;53.094;8.778;2023-10-19T05:52:24;9.10;90.70
24678;DHT22;12800;53.094;8.778;2023-10-19T05:54:50;9.10;90.70
24678;DHT22;12800;53.094;8.778;2023-10-19T05:57:15;9.10;90.80
24678;DHT22;12800;53.094;8.778;2023-10-19T05:59:41;9.10;90.80
24678;DHT22;12800;53.094;8.778;2023-10-19T06:02:07;9.20;90.70
24678;DHT22;12800;53.094;8.778;2023-10-19T06:04:33;9.10;90.70
24678;DHT22;12800;53.094;8.778;2023-10-19T06:06:59;9.10;90.70
24678;DHT22;12800;53.094;8.778;2023-10-19T06:09:24;9.20;90.70
24678;DHT22;12800;53.094;8.778;2023-10-19T06:11:57;9.10;90.60
24678;DHT22;12800;53.094;8.778;2023-10-19T06:14:23;9.10;90.60
24678;DHT22;12800;53.094;8.778;2023-10-19T06:16:49;9.00;90.50
24678;DHT22;12800;53.094;8.778;2023-10-19T06:19:15;9.00;90.70
24678;DHT22;12800;53.094;8.778;2023-10-19T06:21:41;9.00;90.70
24678;DHT22;12800;53.094;8.778;2023-10-19T06:24:08;9.00;90.70
24678;DHT22;12800;53.094;8.778;2023-10-19T06:26:33;9.00;90.70
24678;DHT22;12800;53.094;8.778;2023-10-19T06:28:59;9.00;90.70
24678;DHT22;12800;53.094;8.778;2023-10-19T06:31:25;9.00;90.90
24678;DHT22;12800;53.094;8.778;2023-10-19T06:33:53;9.00;90.90
24678;DHT22;12800;53.094;8.778;2023-10-19T06:36:19;9.10;90.90
24678;DHT22;12800;53.094;8.778;2023-10-19T06:38:45;9.00;90.90
24678;DHT22;12800;53.094;8.778;2023-10-19T06:41:12;9.10;90.90
24678;DHT22;12800;53.094;8.778;2023-10-19T06:43:39;9.10;90.90
24678;DHT22;12800;53.094;8.778;2023-10-19T06:46:05;9.10;90.80
24678;DHT22;12800;53.094;8.778;2023-10-19T06:48:32;9.00;90.80
24678;DHT22;12800;53.094;8.778;2023-10-19T06:50:57;9.00;90.90
24678;DHT22;12800;53.094;8.778;2023-10-19T06:53:23;9.00;90.90
24678;DHT22;12800;53.094;8.778;2023-10-19T06:55:49;9.00;90.90
24678;DHT22;12800;53.094;8.778;2023-10-19T06:58:15;9.00;90.90
24678;DHT22;12800;53.094;8.778;2023-10-19T07:00:45;9.00;90.90
24678;DHT22;12800;53.094;8.778;2023-10-19T07:03:10;9.00;91.00
24678;DHT22;12800;53.094;8.778;2023-10-19T07:05:36;9.00;91.00
24678;DHT22;12800;53.094;8.778;2023-10-19T07:08:03;9.10;91.00
24678;DHT22;12800;53.094;8.778;2023-10-19T07:10:32;9.00;91.30
24678;DHT22;12800;53.094;8.778;2023-10-19T07:13:00;9.00;90.90
24678;DHT22;12800;53.094;8.778;2023-10-19T07:15:25;9.00;90.90
24678;DHT22;12800;53.094;8.778;2023-10-19T07:17:52;9.10;91.00
24678;DHT22;12800;53.094;8.778;2023-10-19T07:20:19;9.10;91.10
24678;DHT22;12800;53.094;8.778;2023-10-19T07:22:59;9.10;91.10
24678;DHT22;12800;53.094;8.778;2023-10-19T07:25:44;9.10;91.10
24678;DHT22;12800;53.094;8.778;2023-10-19T07:28:15;9.10;91.10
24678;DHT22;12800;53.094;8.778;2023-10-19T07:30:42;9.10;91.10
24678;DHT22;12800;53.094;8.778;2023-10-19T07:33:09;9.20;91.20
24678;DHT22;12800;53.094;8.778;2023-10-19T07:35:36;9.20;91.20
24678;DHT22;12800;53.094;8.778;2023-10-19T07:38:04;9.20;91.10
24678;DHT22;12800;53.094;8.778;2023-10-19T07:40:33;9.20;91.00
24678;DHT22;12800;53.094;8.778;2023-10-19T07:42:58;9.20;91.10
24678;DHT22;12800;53.094;8.778;2023-10-19T07:45:25;9.20;91.20
24678;DHT22;12800;53.094;8.778;2023-10-19T07:47:51;9.30;91.30
24678;DHT22;12800;53.094;8.778;2023-10-19T07:50:16;9.30;91.20
24678;DHT22;12800;53.094;8.778;2023-10-19T07:52:46;9.20;91.40
24678;DHT22;12800;53.094;8.778;2023-10-19T07:55:20;9.30;91.10
24678;DHT22;12800;53.094;8.778;2023-10-19T07:57:49;9.20;91.10
24678;DHT22;12800;53.094;8.778;2023-10-19T08:00:19;9.20;91.10
24678;DHT22;12800;53.094;8.778;2023-10-19T08:02:46;9.30;91.10
24678;DHT22;12800;53.094;8.778;2023-10-19T08:05:16;9.20;91.10
24678;DHT22;12800;53.094;8.778;2023-10-19T08:07:44;9.30;91.20
24678;DHT22;12800;53.094;8.778;2023-10-19T08:10:11;9.30;91.20
24678;DHT22;12800;53.094;8.778;2023-10-19T08:12:40;9.30;91.30
24678;DHT22;12800;53.094;8.778;2023-10-19T08:15:09;9.40;91.40
24678;DHT22;12800;53.094;8.778;2023-10-19T08:17:40;9.40;91.30
24678;DHT22;12800;53.094;8.778;2023-10-19T08:20:07;9.50;91.30
24678;DHT22;12800;53.094;8.778;2023-10-19T08:22:36;9.50;91.30
24678;DHT22;12800;53.094;8.778;2023-10-19T08:25:03;9.50;91.20
24678;DHT22;12800;53.094;8.778;2023-10-19T08:27:41;9.50;91.10
24678;DHT22;12800;53.094;8.778;2023-10-19T08:30:28;9.50;91.10
24678;DHT22;12800;53.094;8.778;2023-10-19T08:32:54;9.50;91.20
24678;DHT22;12800;53.094;8.778;2023-10-19T08:35:21;9.50;91.20
24678;DHT22;12800;53.094;8.778;2023-10-19T08:37:51;9.50;91.20
24678;DHT22;12800;53.094;8.778;2023-10-19T08:40:16;9.50;91.30
24678;DHT22;12800;53.094;8.778;2023-10-19T08:42:44;9.50;91.30
24678;DHT22;12800;53.094;8.778;2023-10-19T08:45:14;9.50;91.40
24678;DHT22;12800;53.094;8.778;2023-10-19T08:47:53;9.60;91.30
24678;DHT22;12800;53.094;8.778;2023-10-19T08:50:23;9.60;91.30
24678;DHT22;12800;53.094;8.778;2023-10-19T08:52:52;9.60;91.30
24678;DHT22;12800;53.094;8.778;2023-10-19T08:55:19;9.70;91.40
24678;DHT22;12800;53.094;8.778;2023-10-19T08:57:47;9.70;91.30
24678;DHT22;12800;53.094;8.778;2023-10-19T09:00:14;9.70;91.30
24678;DHT22;12800;53.094;8.778;2023-10-19T09:02:43;9.70;91.20
24678;DHT22;12800;53.094;8.778;2023-10-19T09:05:09;9.70;91.20
24678;DHT22;12800;53.094;8.778;2023-10-19T09:07:46;9.70;91.30
24678;DHT22;12800;53.094;8.778;2023-10-19T09:10:16;9.80;91.30
24678;DHT22;12800;53.094;8.778;2023-10-19T09:12:41;9.80;91.30
24678;DHT22;12800;53.094;8.778;2023-10-19T09:15:21;9.70;91.10
24678;DHT22;12800;53.094;8.778;2023-10-19T09:17:48;9.70;91.10
24678;DHT22;12800;53.094;8.778;2023-10-19T09:20:14;9.60;91.10
24678;DHT22;12800;53.094;8.778;2023-10-19T09:22:50;9.60;91.20
24678;DHT22;12800;53.094;8.778;2023-10-19T09:25:16;9.60;91.30
24678;DHT22;12800;53.094;8.778;2023-10-19T09:27:43;9.70;91.40
24678;DHT22;12800;53.094;8.778;2023-10-19T09:30:11;9.70;91.30
24678;DHT22;12800;53.094;8.778;2023-10-19T09:32:39;9.70;91.40
24678;DHT22;12800;53.094;8.778;2023-10-19T09:35:06;9.80;91.50
24678;DHT22;12800;53.094;8.778;2023-10-19T09:37:34;9.80;91.40
24678;DHT22;12800;53.094;8.778;2023-10-19T09:40:00;9.80;91.40
24678;DHT22;12800;53.094;8.778;2023-10-19T09:42:28;9.80;91.40
24678;DHT22;12800;53.094;8.778;2023-10-19T09:44:59;9.80;91.40
24678;DHT22;12800;53.094;8.778;2023-10-19T09:47:35;9.80;91.40
24678;DHT22;12800;53.094;8.778;2023-10-19T09:50:04;9.90;91.40
24678;DHT22;12800;53.094;8.778;2023-10-19T09:52:33;9.90;91.40
24678;DHT22;12800;53.094;8.778;2023-10-19T09:55:24;9.90;91.50
24678;DHT22;12800;53.094;8.778;2023-10-19T09:58:12;9.90;91.40
24678;DHT22;12800;53.094;8.778;2023-10-19T10:00:44;10.00;91.50
24678;DHT22;12800;53.094;8.778;2023-10-19T10:03:43;10.00;91.40
24678;DHT22;12800;53.094;8.778;2023-10-19T10:06:13;10.00;91.40
24678;DHT22;12800;53.094;8.778;2023-10-19T10:08:43;10.00;91.40
24678;DHT22;12800;53.094;8.778;2023-10-19T10:13:46;10.00;91.40
24678;DHT22;12800;53.094;8.778;2023-10-19T10:16:17;10.00;91.40
24678;DHT22;12800;53.094;8.778;2023-10-19T10:18:43;10.00;91.40
24678;DHT22;12800;53.094;8.778;2023-10-19T10:21:13;10.00;91.50
24678;DHT22;12800;53.094;8.778;2023-10-19T10:23:49;10.00;91.40
24678;DHT22;12800;53.094;8.778;2023-10-19T10:26:16;10.00;91.40
24678;DHT22;12800;53.094;8.778;2023-10-19T10:28:48;10.00;91.50
24678;DHT22;12800;53.094;8.778;2023-10-19T10:31:16;10.00;91.50
24678;DHT22;12800;53.094;8.778;2023-10-19T10:33:51;10.00;91.40
24678;DHT22;12800;53.094;8.778;2023-10-19T10:36:20;10.00;91.40
24678;DHT22;12800;53.094;8.778;2023-10-19T10:38:50;10.10;91.50
24678;DHT22;12800;53.094;8.778;2023-10-19T10:41:22;10.10;91.50
24678;DHT22;12800;53.094;8.778;2023-10-19T10:43:55;10.10;91.40
24678;DHT22;12800;53.094;8.778;2023-10-19T10:46:23;10.10;91.40
24678;DHT22;12800;53.094;8.778;2023-10-19T10:48:49;10.10;91.50
24678;DHT22;12800;53.094;8.778;2023-10-19T10:51:17;10.10;91.50
24678;DHT22;12800;53.094;8.778;2023-10-19T10:53:43;10.10;91.50
24678;DHT22;12800;53.094;8.778;2023-10-19T10:56:09;10.20;91.50
24678;DHT22;12800;53.094;8.778;2023-10-19T10:58:34;10.20;91.50
24678;DHT22;12800;53.094;8.778;2023-10-19T11:01:00;10.20;91.50
24678;DHT22;12800;53.094;8.778;2023-10-19T11:03:27;10.20;91.50
24678;DHT22;12800;53.094;8.778;2023-10-19T11:06:02;10.20;91.50
24678;DHT22;12800;53.094;8.778;2023-10-19T11:08:28;10.30;91.60
24678;DHT22;12800;53.094;8.778;2023-10-19T11:10:53;10.30;91.50
24678;DHT22;12800;53.094;8.778;2023-10-19T11:13:23;10.30;91.50
24678;DHT22;12800;53.094;8.778;2023-10-19T11:15:51;10.30;91.50
24678;DHT22;12800;53.094;8.778;2023-10-19T11:18:35;10.30;91.50
24678;DHT22;12800;53.094;8.778;2023-10-19T11:21:02;10.40;91.50
24678;DHT22;12800;53.094;8.778;2023-10-19T11:23:48;10.40;91.50
24678;DHT22;12800;53.094;8.778;2023-10-19T11:26:16;10.40;91.40
24678;DHT22;12800;53.094;8.778;2023-10-19T11:28:42;10.40;91.30
24678;DHT22;12800;53.094;8.778;2023-10-19T11:31:18;10.40;91.30
24678;DHT22;12800;53.094;8.778;2023-10-19T11:33:46;10.40;91.30
24678;DHT22;12800;53.094;8.778;2023-10-19T11:36:14;10.40;91.30
24678;DHT22;12800;53.094;8.778;2023-10-19T11:38:41;10.40;91.30
24678;DHT22;12800;53.094;8.778;2023-10-19T11:41:07;10.40;91.30
24678;DHT22;12800;53.094;8.778;2023-10-19T11:43:34;10.30;91.20
24678;DHT22;12800;53.094;8.778;2023-10-19T11:46:00;10.30;91.20
24678;DHT22;12800;53.094;8.778;2023-10-19T11:48:26;10.30;91.30
24678;DHT22;12800;53.094;8.778;2023-10-19T11:50:51;10.30;91.30
24678;DHT22;12800;53.094;8.778;2023-10-19T11:53:17;10.20;91.20
24678;DHT22;12800;53.094;8.778;2023-10-19T11:55:43;10.20;91.20
24678;DHT22;12800;53.094;8.778;2023-10-19T11:58:08;10.20;91.30
24678;DHT22;12800;53.094;8.778;2023-10-19T12:00:37;10.20;91.20
24678;DHT22;12800;53.094;8.778;2023-10-19T12:03:04;10.20;91.20
24678;DHT22;12800;53.094;8.778;2023-10-19T12:05:29;10.20;91.20
24678;DHT22;12800;53.094;8.778;2023-10-19T12:07:55;10.10;91.30
24678;DHT22;12800;53.094;8.778;2023-10-19T12:10:22;10.10;91.30
24678;DHT22;12800;53.094;8.778;2023-10-19T12:12:54;10.10;91.30
24678;DHT22;12800;53.094;8.778;2023-10-19T12:15:22;10.10;91.30
24678;DHT22;12800;53.094;8.778;2023-10-19T12:17:48;10.10;91.20
24678;DHT22;12800;53.094;8.778;2023-10-19T12:20:16;10.10;91.30
24678;DHT22;12800;53.094;8.778;2023-10-19T12:22:41;10.10;91.20
24678;DHT22;12800;53.094;8.778;2023-10-19T12:25:08;10.10;91.30
24678;DHT22;12800;53.094;8.778;2023-10-19T12:27:33;10.10;91.30
24678;DHT22;12800;53.094;8.778;2023-10-19T12:29:59;10.10;91.30
24678;DHT22;12800;53.094;8.778;2023-10-19T12:32:25;10.10;91.30
24678;DHT22;12800;53.094;8.778;2023-10-19T12:34:54;10.10;91.30
24678;DHT22;12800;53.094;8.778;2023-10-19T12:37:23;10.10;91.30
24678;DHT22;12800;53.094;8.778;2023-10-19T12:39:49;10.10;91.20
24678;DHT22;12800;53.094;8.778;2023-10-19T12:42:16;10.10;91.20
24678;DHT22;12800;53.094;8.778;2023-10-19T12:44:42;10.10;91.20
24678;DHT22;12800;53.094;8.778;2023-10-19T12:47:09;10.10;91.10
24678;DHT22;12800;53.094;8.778;2023-10-19T12:49:38;10.00;91.00
24678;DHT22;12800;53.094;8.778;2023-10-19T12:52:04;10.00;91.00
24678;DHT22;12800;53.094;8.778;2023-10-19T12:54:33;9.90;91.10
24678;DHT22;12800;53.094;8.778;2023-10-19T12:57:00;9.90;91.10
24678;DHT22;12800;53.094;8.778;2023-10-19T12:59:25;9.90;91.20
24678;DHT22;12800;53.094;8.778;2023-10-19T13:01:51;9.90;91.20
24678;DHT22;12800;53.094;8.778;2023-10-19T13:04:20;10.00;91.30
24678;DHT22;12800;53.094;8.778;2023-10-19T13:06:49;10.00;91.30
24678;DHT22;12800;53.094;8.778;2023-10-19T13:09:15;10.00;91.20
24678;DHT22;12800;53.094;8.778;2023-10-19T13:11:47;9.90;91.10
24678;DHT22;12800;53.094;8.778;2023-10-19T13:14:17;9.90;91.10
24678;DHT22;12800;53.094;8.778;2023-10-19T13:16:43;9.90;91.10
24678;DHT22;12800;53.094;8.778;2023-10-19T13:19:08;9.90;91.10
24678;DHT22;12800;53.094;8.778;2023-10-19T13:21:39;9.90;91.10
24678;DHT22;12800;53.094;8.778;2023-10-19T13:24:05;9.90;91.10
24678;DHT22;12800;53.094;8.778;2023-10-19T13:26:31;9.90;91.10
24678;DHT22;12800;53.094;8.778;2023-10-19T13:28:57;9.80;91.10
24678;DHT22;12800;53.094;8.778;2023-10-19T13:31:23;9.80;91.10
24678;DHT22;12800;53.094;8.778;2023-10-19T13:33:52;9.80;91.10
24678;DHT22;12800;53.094;8.778;2023-10-19T13:36:18;9.80;91.10
24678;DHT22;12800;53.094;8.778;2023-10-19T13:38:45;9.90;91.10
24678;DHT22;12800;53.094;8.778;2023-10-19T13:41:10;9.80;91.10
24678;DHT22;12800;53.094;8.778;2023-10-19T13:43:37;9.90;91.10
24678;DHT22;12800;53.094;8.778;2023-10-19T13:46:02;9.90;91.00
24678;DHT22;12800;53.094;8.778;2023-10-19T13:48:30;9.90;91.00
24678;DHT22;12800;53.094;8.778;2023-10-19T13:50:57;9.90;91.00
24678;DHT22;12800;53.094;8.778;2023-10-19T13:53:39;9.90;91.00
24678;DHT22;12800;53.094;8.778;2023-10-19T13:56:08;9.90;91.00
24678;DHT22;12800;53.094;8.778;2023-10-19T13:58:34;9.80;90.90
24678;DHT22;12800;53.094;8.778;2023-10-19T14:01:00;9.80;90.90
24678;DHT22;12800;53.094;8.778;2023-10-19T14:03:26;9.80;90.90
24678;DHT22;12800;53.094;8.778;2023-10-19T14:05:52;9.80;91.00
24678;DHT22;12800;53.094;8.778;2023-10-19T14:08:21;9.80;91.00
24678;DHT22;12800;53.094;8.778;2023-10-19T14:10:47;9.80;91.10
24678;DHT22;12800;53.094;8.778;2023-10-19T14:13:13;9.80;91.10
24678;DHT22;12800;53.094;8.778;2023-10-19T14:15:42;9.80;91.10
24678;DHT22;12800;53.094;8.778;2023-10-19T14:18:09;9.80;91.00
24678;DHT22;12800;53.094;8.778;2023-10-19T14:20:35;9.80;91.00
24678;DHT22;12800;53.094;8.778;2023-10-19T14:23:04;9.80;91.40
24678;DHT22;12800;53.094;8.778;2023-10-19T14:25:30;9.80;91.00
24678;DHT22;12800;53.094;8.778;2023-10-19T14:27:56;9.90;91.00
24678;DHT22;12800;53.094;8.778;2023-10-19T14:30:27;9.80;91.00
24678;DHT22;12800;53.094;8.778;2023-10-19T14:32:54;9.80;90.90
24678;DHT22;12800;53.094;8.778;2023-10-19T14:35:22;9.80;91.10
24678;DHT22;12800;53.094;8.778;2023-10-19T14:37:50;9.90;91.20
24678;DHT22;12800;53.094;8.778;2023-10-19T14:40:21;9.90;91.20
24678;DHT22;12800;53.094;8.778;2023-10-19T14:42:47;9.90;91.20
24678;DHT22;12800;53.094;8.778;2023-10-19T14:45:17;9.90;91.10
24678;DHT22;12800;53.094;8.778;2023-10-19T14:47:47;9.90;91.20
24678;DHT22;12800;53.094;8.778;2023-10-19T14:50:14;9.90;91.10
24678;DHT22;12800;53.094;8.778;2023-10-19T14:52:43;9.90;91.10
24678;DHT22;12800;53.094;8.778;2023-10-19T14:55:10;9.90;91.10
24678;DHT22;12800;53.094;8.778;2023-10-19T14:57:36;9.90;91.20
24678;DHT22;12800;53.094;8.778;2023-10-19T15:00:07;9.90;91.20
24678;DHT22;12800;53.094;8.778;2023-10-19T15:02:52;9.90;91.10
24678;DHT22;12800;53.094;8.778;2023-10-19T15:05:21;9.90;91.20
24678;DHT22;12800;53.094;8.778;2023-10-19T15:07:48;9.90;91.20
24678;DHT22;12800;53.094;8.778;2023-10-19T15:10:18;9.90;91.10
24678;DHT22;12800;53.094;8.778;2023-10-19T15:12:43;9.90;91.10
24678;DHT22;12800;53.094;8.778;2023-10-19T15:15:10;9.90;91.10
24678;DHT22;12800;53.094;8.778;2023-10-19T15:17:39;9.90;91.10
24678;DHT22;12800;53.094;8.778;2023-10-19T15:20:06;9.80;91.00
24678;DHT22;12800;53.094;8.778;2023-10-19T15:22:32;9.80;91.10
24678;DHT22;12800;53.094;8.778;2023-10-19T15:24:59;9.80;91.40
24678;DHT22;12800;53.094;8.778;2023-10-19T15:27:25;9.80;91.00
24678;DHT22;12800;53.094;8.778;2023-10-19T15:29:51;9.80;91.00
24678;DHT22;12800;53.094;8.778;2023-10-19T15:32:16;9.80;91.00
24678;DHT22;12800;53.094;8.778;2023-10-19T15:34:42;9.80;91.10
24678;DHT22;12800;53.094;8.778;2023-10-19T15:37:08;9.80;91.10
24678;DHT22;12800;53.094;8.778;2023-10-19T15:39:34;9.70;90.90
24678;DHT22;12800;53.094;8.778;2023-10-19T15:42:00;9.70;91.00
24678;DHT22;12800;53.094;8.778;2023-10-19T15:44:26;9.70;91.00
24678;DHT22;12800;53.094;8.778;2023-10-19T15:46:51;9.70;91.30
24678;DHT22;12800;53.094;8.778;2023-10-19T15:49:18;9.70;90.90
24678;DHT22;12800;53.094;8.778;2023-10-19T15:51:45;9.70;91.00
24678;DHT22;12800;53.094;8.778;2023-10-19T15:54:11;9.70;91.00
24678;DHT22;12800;53.094;8.778;2023-10-19T15:56:36;9.70;91.10